< < Back
Terminal Aerodrome Forecast


Current Version              Previous Versions:   1  2  3  4  5  6  7  8  9  

Terminal Aerodrome Forecast

656
FTUS42 KTAE 302320
TAFABY
TAF
KABY 302320Z 3100/3124 28006KT P6SM SCT050
     FM310200 30004KT P6SM SCT250
     FM312000 29006KT P6SM FEW060 OVC250=

Latest METAR

234
SAUS70 KWBC 310200 RRF
MTRABY
METAR KABY 310153Z AUTO 00000KT 10SM CLR 26/17 A2993 RMK AO2 SLP133
T02610172


USA.gov is the U.S. government's official web portal to all federal, state and local government web resources and services.